Seahouses, United Kingdom
Current Conditions -  °F | °C
As of 9:50 PM on Friday 24 Oct 2014 (Local Time) from EGQM Reporting Station
Clear Clear  
Wind Chill: 42°   Ceiling: Unl
Heat Index: 46°   Visibility: 6mi
Dew Point: 43°   Wind: 8mph
Humidity: 87%   Direction: 200°SSW
Pressure: 29.77"   Gusts: NA
Location:  55.58°N, 1.65°W
Report Text: EGQM 242050Z AUTO 20007KT 9999 NCD 08/06 Q1008
Loading
Personal Weather Stations






























Interactive Weather Map
Tropical Storm Tracking
New forecast layout! Learn more

10-Day Weather Forecast

Advertisements
Track Severe Weather on mobile